Time;durP1;ratioP1;P1;durP2;ratioP2;P2;SDS_P1;SDS_P2;PMS_P1;PMS_P2;Temp;Humidity;BMP_temperature;BMP_pressure;BME280_temperature;BME280_humidity;BME280_pressure;Samples;Min_cycle;Max_cycle;Signal;HPM_P1;HPM_P2
2021/10/31 00:01:04;;;;;;;5.13;2.45;;;10.70;99.90;;;;;;5066857;28;20032;-86
2021/10/31 00:03:32;;;;;;;5.45;2.70;;;10.60;99.90;;;;;;5061938;28;20496;-85
2021/10/31 00:05:57;;;;;;;4.40;2.38;;;10.40;99.90;;;;;;5062927;28;20029;-86
2021/10/31 00:08:23;;;;;;;5.93;2.47;;;10.30;99.90;;;;;;5063890;28;20039;-86
2021/10/31 00:10:49;;;;;;;5.57;1.80;;;10.30;99.90;;;;;;5054336;28;20056;-85
2021/10/31 00:13:15;;;;;;;4.30;1.50;;;10.20;99.90;;;;;;5066974;28;20025;-85
2021/10/31 00:15:41;;;;;;;3.05;1.42;;;10.30;99.90;;;;;;5057702;28;20548;-85
2021/10/31 00:18:06;;;;;;;2.63;1.15;;;10.40;99.90;;;;;;5057836;28;20087;-85
2021/10/31 00:20:32;;;;;;;2.80;1.00;;;10.50;99.90;;;;;;5055389;28;20028;-85
2021/10/31 00:22:58;;;;;;;3.58;1.65;;;10.60;99.90;;;;;;5056592;28;20021;-85
2021/10/31 00:25:23;;;;;;;3.65;1.23;;;10.80;99.90;;;;;;5056000;28;20468;-85
2021/10/31 00:27:49;;;;;;;4.07;1.70;;;10.90;99.90;;;;;;5055030;28;20501;-85
2021/10/31 00:30:15;;;;;;;2.85;1.42;;;10.70;99.90;;;;;;5055740;28;20029;-86
2021/10/31 00:32:40;;;;;;;3.15;1.23;;;10.70;99.90;;;;;;5042428;28;20033;-85
2021/10/31 00:35:07;;;;;;;3.95;1.30;;;10.70;99.90;;;;;;5046952;28;20025;-83
2021/10/31 00:37:33;;;;;;;3.75;1.77;;;10.70;99.90;;;;;;5055909;28;20024;-83
2021/10/31 00:39:58;;;;;;;3.75;1.38;;;10.60;99.90;;;;;;5043032;28;20021;-83
2021/10/31 00:42:24;;;;;;;2.05;0.98;;;10.60;99.90;;;;;;5044296;28;20599;-83
2021/10/31 00:44:50;;;;;;;1.92;1.00;;;10.60;99.90;;;;;;5041576;28;20032;-83
2021/10/31 00:47:15;;;;;;;2.88;1.00;;;10.60;99.90;;;;;;5057983;28;20029;-82
2021/10/31 00:49:41;;;;;;;2.10;1.00;;;10.60;99.90;;;;;;5056250;28;20494;-83
2021/10/31 00:52:10;;;;;;;2.58;1.00;;;10.60;99.90;;;;;;5043294;28;20025;-84
2021/10/31 00:54:35;;;;;;;2.08;0.75;;;10.60;99.90;;;;;;5035158;28;20025;-83
2021/10/31 00:57:01;;;;;;;1.85;0.95;;;10.60;99.90;;;;;;5037248;28;20027;-82
2021/10/31 00:59:27;;;;;;;2.20;0.70;;;10.70;99.90;;;;;;5055420;28;20378;-83
2021/10/31 01:01:54;;;;;;;1.45;0.70;;;10.70;99.90;;;;;;5055100;28;20078;-83
2021/10/31 01:04:20;;;;;;;2.15;0.68;;;10.70;99.90;;;;;;5054783;28;20025;-83
2021/10/31 01:07:03;;;;;;;1.92;0.80;;;10.70;99.90;;;;;;5068065;28;20021;-83
2021/10/31 01:09:40;;;;;;;1.63;0.80;;;10.70;99.90;;;;;;5057143;28;20436;-83
2021/10/31 01:12:33;;;;;;;2.72;0.80;;;10.60;99.90;;;;;;5077769;28;20097;-83
2021/10/31 01:15:11;;;;;;;2.00;0.75;;;10.50;99.90;;;;;;5068711;28;20024;-83
2021/10/31 01:18:00;;;;;;;1.35;0.52;;;10.40;99.90;;;;;;5076127;28;20052;-82
2021/10/31 01:20:38;;;;;;;2.28;0.80;;;10.30;99.90;;;;;;5074414;28;20024;-83
2021/10/31 01:23:23;;;;;;;2.05;0.80;;;10.30;99.90;;;;;;5074927;28;20492;-83
2021/10/31 01:26:23;;;;;;;1.73;0.80;;;10.30;99.90;;;;;;5075926;28;20020;-83
2021/10/31 01:29:13;;;;;;;3.13;1.00;;;10.10;99.90;;;;;;5077193;28;20017;-82
2021/10/31 01:31:48;;;;;;;1.92;0.85;;;10.10;99.90;;;;;;5062306;28;20569;-84
2021/10/31 01:34:38;;;;;;;1.90;0.90;;;10.20;99.90;;;;;;5048760;28;20037;-83
2021/10/31 01:37:27;;;;;;;1.80;0.70;;;10.30;99.90;;;;;;5037190;28;20041;-82
2021/10/31 01:40:11;;;;;;;2.30;1.00;;;10.30;99.90;;;;;;5061006;28;20108;-83
2021/10/31 01:42:58;;;;;;;2.25;0.95;;;10.20;99.90;;;;;;5077344;28;20028;-83
2021/10/31 01:45:57;;;;;;;1.70;0.73;;;10.10;99.90;;;;;;5068189;28;20584;-83
2021/10/31 01:48:58;;;;;;;2.65;0.90;;;10.00;99.90;;;;;;5057012;28;20036;-82
2021/10/31 01:51:42;;;;;;;1.52;0.82;;;9.90;99.90;;;;;;5046835;28;20022;-83
2021/10/31 01:54:15;;;;;;;3.10;1.25;;;9.90;99.90;;;;;;5056952;28;20064;-83
2021/10/31 01:56:44;;;;;;;3.90;1.05;;;9.80;99.90;;;;;;5055753;28;20036;-83
2021/10/31 01:59:30;;;;;;;2.83;1.20;;;9.70;99.90;;;;;;5055185;28;20029;-83
2021/10/31 02:01:58;;;;;;;3.03;1.30;;;9.70;99.90;;;;;;5056250;28;20058;-83
2021/10/31 02:04:26;;;;;;;3.25;1.38;;;9.70;99.90;;;;;;5055322;28;20021;-83
2021/10/31 02:06:53;;;;;;;3.03;1.33;;;9.60;99.90;;;;;;5055748;28;20024;-83
2021/10/31 02:09:22;;;;;;;3.42;1.00;;;9.50;99.90;;;;;;5054383;28;20029;-83
2021/10/31 02:11:49;;;;;;;2.40;1.10;;;9.50;99.90;;;;;;5055212;28;20029;-84
2021/10/31 02:14:17;;;;;;;3.88;1.20;;;9.50;99.90;;;;;;5064235;28;20029;-83
2021/10/31 02:16:45;;;;;;;3.03;1.33;;;9.50;99.90;;;;;;5058028;28;20478;-83
2021/10/31 02:19:20;;;;;;;3.20;1.20;;;9.40;99.90;;;;;;5052508;28;20036;-83
2021/10/31 02:21:47;;;;;;;4.05;1.40;;;9.40;99.90;;;;;;5055407;28;20057;-83
2021/10/31 02:24:13;;;;;;;2.33;1.00;;;9.40;99.90;;;;;;5054948;28;20021;-83
2021/10/31 02:26:39;;;;;;;2.80;1.08;;;9.30;99.90;;;;;;5055977;28;20036;-86
2021/10/31 02:29:08;;;;;;;2.20;1.00;;;9.30;99.90;;;;;;5057830;28;20604;-83
2021/10/31 02:31:36;;;;;;;2.75;1.13;;;9.20;99.90;;;;;;5055769;28;20029;-83
2021/10/31 02:34:05;;;;;;;2.88;1.23;;;9.20;99.90;;;;;;5074842;28;20024;-83
2021/10/31 02:36:32;;;;;;;3.80;1.23;;;9.20;99.90;;;;;;5076000;28;20031;-83
2021/10/31 02:39:01;;;;;;;3.88;1.73;;;9.20;99.90;;;;;;5076537;28;20063;-83
2021/10/31 02:41:30;;;;;;;3.17;1.23;;;9.10;99.90;;;;;;5068828;28;20033;-83
2021/10/31 02:43:56;;;;;;;2.15;0.90;;;9.10;99.90;;;;;;5076441;28;20112;-84
2021/10/31 02:46:23;;;;;;;2.50;1.00;;;9.10;99.90;;;;;;5060882;28;20056;-84
2021/10/31 02:48:49;;;;;;;2.10;0.95;;;9.10;99.90;;;;;;5062431;28;20020;-83
2021/10/31 02:51:43;;;;;;;2.65;1.10;;;9.10;99.90;;;;;;5056502;28;20494;-83
2021/10/31 02:54:24;;;;;;;2.67;0.80;;;9.10;99.90;;;;;;5055057;28;20565;-83
2021/10/31 02:57:05;;;;;;;2.23;0.63;;;9.10;99.90;;;;;;5048406;28;20080;-83
2021/10/31 02:59:51;;;;;;;2.72;0.90;;;9.10;99.90;;;;;;5044473;28;20373;-83
2021/10/31 03:02:18;;;;;;;1.85;0.80;;;9.10;99.90;;;;;;5065242;28;20504;-83
2021/10/31 03:04:45;;;;;;;2.00;0.77;;;9.10;99.90;;;;;;5061110;28;20473;-84
2021/10/31 03:07:13;;;;;;;1.90;0.70;;;9.10;99.90;;;;;;5067170;28;20044;-84
2021/10/31 03:09:39;;;;;;;5.32;2.13;;;9.10;99.90;;;;;;5051998;28;20025;-84
2021/10/31 03:12:07;;;;;;;4.25;1.48;;;9.10;99.90;;;;;;5078539;28;20024;-83
2021/10/31 03:14:33;;;;;;;2.08;0.70;;;9.10;99.90;;;;;;5079259;28;20103;-83
2021/10/31 03:16:59;;;;;;;2.28;0.80;;;9.10;99.90;;;;;;5078994;28;20027;-84
2021/10/31 03:19:25;;;;;;;1.80;0.60;;;9.10;99.90;;;;;;5075370;28;20021;-84
2021/10/31 03:21:50;;;;;;;2.38;1.00;;;9.10;99.90;;;;;;5079328;28;20116;-83
2021/10/31 03:24:16;;;;;;;2.50;1.02;;;9.00;99.90;;;;;;5078408;28;20021;-83
2021/10/31 03:26:41;;;;;;;2.42;1.00;;;9.00;99.90;;;;;;5070455;28;20033;-84
2021/10/31 03:29:07;;;;;;;1.70;0.70;;;8.90;99.90;;;;;;5060252;28;20036;-83
2021/10/31 03:31:33;;;;;;;2.55;0.90;;;8.90;99.90;;;;;;5057866;28;20025;-83
2021/10/31 03:33:59;;;;;;;2.08;0.80;;;8.90;99.90;;;;;;5059081;28;20489;-84
2021/10/31 03:36:24;;;;;;;1.85;0.77;;;8.90;99.90;;;;;;5068210;28;20028;-84
2021/10/31 03:38:50;;;;;;;2.53;0.85;;;8.80;99.90;;;;;;5079449;28;20033;-84
2021/10/31 03:41:16;;;;;;;2.45;0.73;;;8.80;99.90;;;;;;5078672;28;20029;-83
2021/10/31 03:43:42;;;;;;;2.03;0.60;;;8.80;99.90;;;;;;5056688;28;20025;-84
2021/10/31 03:46:07;;;;;;;1.40;0.60;;;8.70;99.90;;;;;;5043872;28;20037;-84
2021/10/31 03:48:33;;;;;;;1.27;0.60;;;8.70;99.90;;;;;;5039754;28;20486;-83
2021/10/31 03:50:59;;;;;;;1.38;0.65;;;8.60;99.90;;;;;;5038188;28;20026;-83
2021/10/31 03:53:24;;;;;;;3.72;0.70;;;8.60;99.90;;;;;;5059755;28;20434;-84
2021/10/31 03:55:50;;;;;;;1.13;0.50;;;8.50;99.90;;;;;;5051346;28;20110;-83
2021/10/31 03:58:16;;;;;;;1.85;0.63;;;8.50;99.90;;;;;;5038437;28;20304;-84
2021/10/31 04:00:43;;;;;;;3.05;0.82;;;8.50;99.90;;;;;;5042522;28;20033;-84
2021/10/31 04:03:09;;;;;;;2.35;0.80;;;8.50;99.90;;;;;;5038365;28;20048;-84
2021/10/31 04:05:35;;;;;;;1.55;0.68;;;8.50;99.90;;;;;;5046606;28;20037;-83
2021/10/31 04:08:00;;;;;;;1.67;0.98;;;8.50;99.90;;;;;;5054945;28;20033;-83
2021/10/31 04:10:26;;;;;;;2.03;0.77;;;8.50;99.90;;;;;;5067164;28;20048;-83
2021/10/31 04:12:52;;;;;;;2.25;0.85;;;8.50;99.90;;;;;;5078433;28;20146;-83
2021/10/31 04:15:19;;;;;;;2.60;1.17;;;8.50;99.90;;;;;;5080079;28;20028;-83
2021/10/31 04:17:44;;;;;;;2.97;1.27;;;8.50;99.90;;;;;;5076456;28;20031;-84
2021/10/31 04:20:10;;;;;;;4.65;1.35;;;8.40;99.90;;;;;;5059116;28;20036;-84
2021/10/31 04:22:36;;;;;;;4.20;1.70;;;8.50;99.90;;;;;;5059118;28;20033;-84
2021/10/31 04:25:06;;;;;;;3.70;1.63;;;8.50;99.90;;;;;;5058323;28;20029;-83
2021/10/31 04:27:32;;;;;;;3.65;1.60;;;8.50;99.90;;;;;;5039199;28;20037;-83
2021/10/31 04:29:57;;;;;;;3.08;1.30;;;8.50;99.90;;;;;;5038063;28;20029;-83
2021/10/31 04:32:23;;;;;;;3.22;1.52;;;8.50;99.90;;;;;;5038273;28;20037;-84
2021/10/31 04:34:49;;;;;;;4.18;1.58;;;8.50;99.90;;;;;;5045228;28;20037;-83
2021/10/31 04:37:15;;;;;;;2.65;1.33;;;8.40;99.90;;;;;;5048440;28;20029;-84
2021/10/31 04:39:42;;;;;;;3.80;1.83;;;8.40;99.90;;;;;;5059865;28;20056;-83
2021/10/31 04:42:09;;;;;;;3.13;1.55;;;8.40;99.90;;;;;;5061003;28;20051;-83
2021/10/31 04:44:35;;;;;;;2.90;1.33;;;8.40;99.90;;;;;;5052409;28;20127;-84
2021/10/31 04:47:01;;;;;;;3.88;2.00;;;8.30;99.90;;;;;;5052847;28;20025;-83
2021/10/31 04:49:28;;;;;;;3.78;2.00;;;8.30;99.90;;;;;;5051113;28;20074;-83
2021/10/31 04:51:54;;;;;;;3.85;1.98;;;8.40;99.90;;;;;;5052423;28;20040;-83
2021/10/31 04:54:20;;;;;;;5.13;2.15;;;8.40;99.90;;;;;;5052363;28;20090;-83
2021/10/31 04:56:46;;;;;;;4.30;2.08;;;8.40;99.90;;;;;;5052978;28;20037;-83
2021/10/31 04:59:12;;;;;;;4.32;2.13;;;8.40;99.90;;;;;;5052516;28;20041;-84
2021/10/31 05:01:37;;;;;;;4.30;2.30;;;8.40;99.90;;;;;;5051380;28;20417;-83
2021/10/31 05:04:03;;;;;;;4.30;2.17;;;8.40;99.90;;;;;;5052891;28;20111;-83
2021/10/31 05:06:29;;;;;;;5.72;2.90;;;8.40;99.90;;;;;;5051531;28;20040;-82
2021/10/31 05:08:55;;;;;;;5.57;2.70;;;8.40;99.90;;;;;;5041403;28;20496;-83
2021/10/31 05:11:20;;;;;;;4.97;2.70;;;8.40;99.90;;;;;;5067209;28;20377;-83
2021/10/31 05:13:48;;;;;;;5.18;2.78;;;8.40;99.90;;;;;;5072224;28;20032;-83
2021/10/31 05:16:14;;;;;;;4.32;2.28;;;8.30;99.90;;;;;;5068281;28;20547;-83
2021/10/31 05:18:40;;;;;;;5.40;3.30;;;8.30;99.90;;;;;;5052440;28;20017;-83
2021/10/31 05:21:06;;;;;;;5.93;2.83;;;8.30;99.90;;;;;;5049651;28;20660;-82
2021/10/31 05:23:32;;;;;;;5.90;3.28;;;8.40;99.90;;;;;;5049526;28;20033;-83
2021/10/31 05:25:57;;;;;;;6.30;3.22;;;8.40;99.90;;;;;;5044606;28;20107;-83
2021/10/31 05:28:24;;;;;;;6.07;3.15;;;8.40;99.90;;;;;;5050916;28;20033;-82
2021/10/31 05:30:51;;;;;;;6.22;2.55;;;8.40;99.90;;;;;;5049197;28;20469;-83
2021/10/31 05:33:18;;;;;;;5.55;2.80;;;8.50;99.90;;;;;;5050283;28;20057;-83
2021/10/31 05:35:43;;;;;;;7.47;2.88;;;8.40;99.90;;;;;;5051094;28;20025;-83
2021/10/31 05:38:11;;;;;;;5.95;3.00;;;8.40;99.90;;;;;;5052043;28;20359;-83
2021/10/31 05:40:36;;;;;;;6.57;3.05;;;8.40;99.90;;;;;;5050992;28;20017;-83
2021/10/31 05:43:02;;;;;;;6.10;2.77;;;8.40;99.90;;;;;;5052205;28;20033;-83
2021/10/31 05:45:29;;;;;;;7.63;2.50;;;8.40;99.90;;;;;;5041679;28;20041;-83
2021/10/31 05:47:55;;;;;;;5.13;3.05;;;8.40;99.90;;;;;;5036055;28;20032;-83
2021/10/31 05:50:21;;;;;;;5.22;2.63;;;8.40;99.90;;;;;;5036526;28;20091;-83
2021/10/31 05:52:47;;;;;;;4.43;2.50;;;8.50;99.90;;;;;;5059410;23;20021;-82
2021/10/31 05:55:15;;;;;;;5.22;2.42;;;8.50;99.90;;;;;;5074656;28;20044;-83
2021/10/31 05:57:43;;;;;;;4.30;2.10;;;8.50;99.90;;;;;;5081490;28;20088;-83
2021/10/31 06:00:11;;;;;;;4.35;2.10;;;8.50;99.90;;;;;;5071139;28;20032;-83
2021/10/31 06:02:36;;;;;;;5.13;2.57;;;8.50;99.90;;;;;;5077317;28;20016;-84
2021/10/31 06:05:03;;;;;;;4.47;2.47;;;8.50;99.90;;;;;;5060784;28;20043;-83
2021/10/31 06:07:31;;;;;;;5.45;2.78;;;8.50;99.90;;;;;;5072896;28;20086;-83
2021/10/31 06:09:57;;;;;;;5.50;2.92;;;8.50;99.90;;;;;;5050502;28;20081;-84
2021/10/31 06:12:23;;;;;;;5.68;2.20;;;8.50;99.90;;;;;;5062676;28;20100;-84
2021/10/31 06:14:48;;;;;;;6.15;2.90;;;8.50;99.90;;;;;;5052216;28;20401;-83
2021/10/31 06:17:14;;;;;;;4.60;2.35;;;8.50;99.90;;;;;;5055962;28;20021;-82
2021/10/31 06:19:40;;;;;;;4.85;2.33;;;8.50;99.90;;;;;;5060389;28;20035;-82
2021/10/31 06:22:06;;;;;;;5.38;2.30;;;8.40;99.90;;;;;;5053485;28;20428;-83
2021/10/31 06:24:32;;;;;;;4.70;2.13;;;8.40;99.90;;;;;;5051354;28;20128;-82
2021/10/31 06:26:58;;;;;;;4.72;2.40;;;8.70;99.90;;;;;;5058627;28;20062;-82
2021/10/31 06:29:24;;;;;;;5.90;2.45;;;8.50;99.90;;;;;;5069075;28;20032;-83
2021/10/31 06:31:50;;;;;;;5.15;2.05;;;8.50;99.90;;;;;;5056541;28;20041;-85
2021/10/31 06:34:16;;;;;;;6.15;2.78;;;8.50;99.90;;;;;;5076995;28;20021;-82
2021/10/31 06:36:42;;;;;;;5.10;2.30;;;8.50;99.90;;;;;;5060532;28;20028;-84
2021/10/31 06:39:08;;;;;;;4.18;2.28;;;8.50;99.90;;;;;;5071173;28;20151;-83
2021/10/31 06:41:33;;;;;;;4.95;2.42;;;8.50;99.90;;;;;;5067842;28;20040;-84
2021/10/31 06:43:59;;;;;;;4.05;2.22;;;8.50;99.90;;;;;;5069315;28;20092;-85
2021/10/31 06:46:25;;;;;;;4.93;2.40;;;8.60;99.90;;;;;;5072941;28;20020;-84
2021/10/31 06:48:52;;;;;;;4.93;2.53;;;8.60;99.90;;;;;;5074832;28;20028;-83
2021/10/31 06:51:19;;;;;;;4.32;2.45;;;8.60;99.90;;;;;;5060137;28;20401;-84
2021/10/31 06:53:44;;;;;;;4.53;2.67;;;8.70;99.90;;;;;;5061616;28;20449;-84
2021/10/31 06:56:11;;;;;;;6.20;2.70;;;8.70;99.90;;;;;;5065954;28;20150;-85
2021/10/31 06:58:37;;;;;;;6.30;2.33;;;8.80;99.90;;;;;;5048544;28;20524;-83
2021/10/31 07:01:03;;;;;;;5.15;2.47;;;8.80;99.90;;;;;;5069095;28;20025;-84
2021/10/31 07:03:28;;;;;;;5.72;2.60;;;8.90;99.90;;;;;;5070276;28;20092;-85
2021/10/31 07:05:55;;;;;;;4.80;2.35;;;8.90;99.90;;;;;;5047563;28;20090;-82
2021/10/31 07:08:21;;;;;;;5.10;2.42;;;9.00;99.90;;;;;;5070064;28;20481;-83
2021/10/31 07:10:46;;;;;;;4.90;2.42;;;9.00;99.90;;;;;;5055770;28;20030;-82
2021/10/31 07:13:12;;;;;;;5.78;2.47;;;9.00;99.90;;;;;;5067618;28;20033;-83
2021/10/31 07:15:38;;;;;;;5.18;2.60;;;9.10;99.90;;;;;;5069745;28;20040;-85
2021/10/31 07:18:04;;;;;;;5.72;2.47;;;9.20;99.90;;;;;;5069467;28;20045;-83
2021/10/31 07:20:31;;;;;;;5.45;2.58;;;9.30;99.90;;;;;;5056418;28;20107;-83
2021/10/31 07:22:57;;;;;;;4.68;2.25;;;9.40;99.90;;;;;;5049069;28;20143;-83
2021/10/31 07:25:24;;;;;;;8.75;3.42;;;9.50;99.90;;;;;;5054079;28;20029;-85
2021/10/31 07:27:52;;;;;;;5.32;2.78;;;9.50;99.90;;;;;;5061693;28;20316;-84
2021/10/31 07:30:18;;;;;;;6.18;2.92;;;9.60;99.90;;;;;;5066224;28;20028;-83
2021/10/31 07:32:44;;;;;;;6.90;3.22;;;9.70;99.90;;;;;;5068442;28;20022;-83
2021/10/31 07:35:10;;;;;;;7.40;2.97;;;9.70;99.90;;;;;;5052765;28;20116;-82
2021/10/31 07:37:36;;;;;;;5.35;2.92;;;9.70;99.90;;;;;;5067428;28;20031;-82
2021/10/31 07:40:07;;;;;;;6.57;3.20;;;9.70;99.90;;;;;;5065252;28;20100;-82
2021/10/31 07:42:33;;;;;;;5.60;2.90;;;9.70;99.90;;;;;;5056208;28;20420;-83
2021/10/31 07:45:00;;;;;;;7.07;3.13;;;9.80;99.90;;;;;;5057783;28;20043;-84
2021/10/31 07:47:26;;;;;;;7.10;2.90;;;9.80;99.90;;;;;;5073337;28;20031;-83
2021/10/31 07:49:52;;;;;;;4.57;2.67;;;9.80;99.90;;;;;;5061693;28;20017;-85
2021/10/31 07:52:22;;;;;;;4.10;2.63;;;9.90;99.90;;;;;;5059923;28;20020;-86
2021/10/31 07:54:48;;;;;;;4.95;2.58;;;10.00;99.90;;;;;;5073229;28;20024;-85
2021/10/31 07:57:14;;;;;;;7.85;3.08;;;10.10;99.90;;;;;;5082347;28;20036;-84
2021/10/31 07:59:40;;;;;;;5.55;2.97;;;10.20;99.90;;;;;;5046317;28;20027;-84
2021/10/31 08:02:08;;;;;;;4.72;2.58;;;10.30;99.90;;;;;;5068728;28;20481;-85
2021/10/31 08:04:33;;;;;;;4.25;2.40;;;10.40;99.90;;;;;;5052437;28;20051;-85
2021/10/31 08:07:00;;;;;;;4.72;2.25;;;10.40;99.90;;;;;;5056263;28;20032;-86
2021/10/31 08:09:29;;;;;;;6.47;2.78;;;10.50;99.90;;;;;;5079584;28;20028;-83
2021/10/31 08:11:55;;;;;;;4.68;2.47;;;10.60;99.90;;;;;;5050412;28;20090;-84
2021/10/31 08:14:20;;;;;;;5.32;2.90;;;10.60;99.90;;;;;;5070367;28;20423;-83
2021/10/31 08:16:46;;;;;;;5.40;2.55;;;10.80;99.90;;;;;;5090686;28;20021;-84
2021/10/31 08:19:12;;;;;;;6.15;3.08;;;10.90;99.90;;;;;;5069679;28;20029;-84
2021/10/31 08:21:38;;;;;;;4.75;2.78;;;10.90;99.90;;;;;;5083142;28;20029;-85
2021/10/31 08:24:06;;;;;;;5.68;3.10;;;10.90;99.90;;;;;;5068141;28;20055;-85
2021/10/31 08:26:32;;;;;;;5.25;2.75;;;10.90;99.90;;;;;;5077030;28;20040;-85
2021/10/31 08:29:00;;;;;;;5.47;2.78;;;10.90;99.90;;;;;;5068486;28;20037;-83
2021/10/31 08:31:30;;;;;;;5.22;2.78;;;10.90;99.90;;;;;;5070763;28;20081;-83
2021/10/31 08:33:59;;;;;;;5.22;2.67;;;11.00;99.90;;;;;;5066413;28;20029;-83
2021/10/31 08:36:26;;;;;;;4.18;1.35;;;11.10;99.90;;;;;;5060846;28;20040;-83
2021/10/31 08:38:52;;;;;;;4.40;1.90;;;11.40;99.90;;;;;;5052007;28;20025;-84
2021/10/31 08:41:20;;;;;;;4.43;2.08;;;11.20;99.90;;;;;;5064188;28;20052;-84
2021/10/31 08:43:46;;;;;;;4.53;2.17;;;11.20;99.90;;;;;;5074643;28;20028;-84
2021/10/31 08:46:11;;;;;;;3.85;1.88;;;11.20;99.90;;;;;;5076477;28;20047;-84
2021/10/31 08:48:38;;;;;;;3.88;2.03;;;11.30;99.90;;;;;;5089076;28;20032;-81
2021/10/31 08:51:05;;;;;;;2.97;1.75;;;11.30;99.90;;;;;;5084676;28;20025;-84
2021/10/31 08:53:32;;;;;;;3.40;1.80;;;11.30;99.90;;;;;;5075113;28;20024;-85
2021/10/31 08:55:58;;;;;;;4.75;2.13;;;11.30;99.90;;;;;;5082254;28;20024;-85
2021/10/31 08:58:24;;;;;;;4.38;2.08;;;11.40;99.90;;;;;;5058332;28;20362;-84
2021/10/31 09:00:50;;;;;;;3.60;2.00;;;11.40;99.90;;;;;;5056559;28;20017;-84
2021/10/31 09:03:16;;;;;;;6.97;2.30;;;11.40;99.90;;;;;;5070801;28;20035;-84
2021/10/31 09:05:42;;;;;;;3.60;2.05;;;11.50;99.90;;;;;;5070057;28;20025;-84
2021/10/31 09:08:09;;;;;;;4.30;2.00;;;11.50;99.90;;;;;;5068836;28;20791;-84
2021/10/31 09:10:35;;;;;;;5.03;2.30;;;11.60;99.90;;;;;;5065215;28;20028;-84
2021/10/31 09:13:02;;;;;;;4.70;2.45;;;11.60;99.90;;;;;;5069181;28;20017;-84
2021/10/31 09:15:28;;;;;;;4.03;1.88;;;11.70;99.90;;;;;;5056754;28;20025;-84
2021/10/31 09:17:54;;;;;;;6.18;1.65;;;11.80;99.90;;;;;;5062222;28;20504;-85
2021/10/31 09:20:24;;;;;;;4.38;1.85;;;11.90;99.90;;;;;;5065741;28;20021;-83
2021/10/31 09:22:51;;;;;;;3.45;1.63;;;12.00;99.90;;;;;;5063105;28;20028;-84
2021/10/31 09:25:16;;;;;;;2.83;1.50;;;12.00;99.90;;;;;;5051033;28;20404;-82
2021/10/31 09:27:42;;;;;;;3.63;1.70;;;12.10;99.90;;;;;;5049169;28;20028;-84
2021/10/31 09:30:08;;;;;;;3.03;1.63;;;12.10;99.90;;;;;;5061296;28;20029;-85
2021/10/31 09:32:43;;;;;;;4.18;1.60;;;12.20;99.90;;;;;;5052041;28;20127;-84
2021/10/31 09:35:09;;;;;;;4.00;1.50;;;12.20;99.90;;;;;;5058703;28;20032;-84
2021/10/31 09:37:35;;;;;;;3.33;1.30;;;12.30;99.90;;;;;;5073967;28;20020;-85
2021/10/31 09:40:03;;;;;;;2.78;1.60;;;12.30;99.90;;;;;;5068123;28;20013;-84
2021/10/31 09:42:29;;;;;;;3.53;1.52;;;12.40;99.90;;;;;;5057383;28;20021;-85
2021/10/31 09:44:55;;;;;;;3.78;1.45;;;12.40;99.90;;;;;;5045438;28;20031;-85
2021/10/31 09:47:25;;;;;;;3.65;1.75;;;12.50;99.90;;;;;;5069729;28;20481;-84
2021/10/31 09:49:52;;;;;;;3.60;1.48;;;12.60;99.90;;;;;;5048427;28;20033;-84
2021/10/31 09:52:19;;;;;;;2.10;0.93;;;12.70;99.90;;;;;;5049556;28;20036;-84
2021/10/31 09:54:47;;;;;;;2.90;1.20;;;12.80;99.90;;;;;;5058386;28;20393;-84
2021/10/31 09:57:13;;;;;;;2.83;1.10;;;12.90;99.90;;;;;;5056572;28;20063;-85
2021/10/31 09:59:48;;;;;;;2.65;1.35;;;12.90;99.90;;;;;;5066281;28;20024;-84
2021/10/31 10:02:26;;;;;;;2.97;1.20;;;13.10;99.90;;;;;;5051343;28;20033;-82
2021/10/31 10:04:53;;;;;;;4.00;1.40;;;13.20;99.90;;;;;;5061243;28;20028;-84
2021/10/31 10:07:21;;;;;;;3.40;1.60;;;13.30;99.90;;;;;;5052308;28;20020;-85
2021/10/31 10:09:55;;;;;;;2.55;1.00;;;13.30;99.90;;;;;;5051978;28;20021;-85
2021/10/31 10:12:22;;;;;;;2.10;1.02;;;13.50;99.90;;;;;;5064255;28;20079;-84
2021/10/31 10:15:02;;;;;;;2.17;0.90;;;13.60;99.90;;;;;;5057353;28;20032;-82
2021/10/31 10:17:41;;;;;;;1.45;0.70;;;13.80;99.90;;;;;;5049650;28;20009;-84
2021/10/31 10:20:11;;;;;;;2.08;0.80;;;13.90;99.90;;;;;;5075337;28;20028;-83
2021/10/31 10:22:37;;;;;;;2.30;0.75;;;14.00;99.90;;;;;;5074957;28;20027;-84
2021/10/31 10:25:04;;;;;;;1.98;0.88;;;13.70;99.90;;;;;;5058853;28;20033;-84
2021/10/31 10:27:35;;;;;;;3.10;0.88;;;14.20;99.90;;;;;;5078007;28;20478;-84
2021/10/31 10:30:15;;;;;;;2.33;0.90;;;14.30;99.90;;;;;;5066667;28;20013;-84
2021/10/31 10:32:58;;;;;;;2.63;1.30;;;14.30;99.90;;;;;;5054059;28;20028;-84
2021/10/31 10:35:26;;;;;;;3.28;1.23;;;14.40;99.90;;;;;;5066348;28;20613;-85
2021/10/31 10:37:53;;;;;;;3.40;1.30;;;14.50;99.90;;;;;;5064664;28;20017;-84
2021/10/31 10:40:24;;;;;;;3.30;1.55;;;14.60;99.90;;;;;;5051780;28;20604;-83
2021/10/31 10:42:59;;;;;;;2.67;1.23;;;14.70;99.90;;;;;;5059794;28;20746;-84
2021/10/31 10:45:30;;;;;;;2.83;1.00;;;14.90;99.90;;;;;;5053845;28;20486;-83
2021/10/31 10:48:05;;;;;;;2.25;0.90;;;15.00;99.90;;;;;;5044196;28;20620;-84
2021/10/31 10:50:40;;;;;;;3.03;1.13;;;15.10;99.90;;;;;;5057716;28;20029;-85
2021/10/31 10:53:15;;;;;;;4.35;1.20;;;15.20;99.90;;;;;;5060309;28;20553;-82
2021/10/31 10:55:41;;;;;;;1.75;0.85;;;15.40;99.90;;;;;;5055176;28;20024;-85
2021/10/31 10:58:15;;;;;;;3.97;1.02;;;15.50;99.90;;;;;;5059116;28;20035;-82
2021/10/31 11:00:43;;;;;;;2.25;1.25;;;15.60;99.90;;;;;;5061677;28;20029;-83
2021/10/31 11:03:15;;;;;;;2.10;0.88;;;15.70;99.90;;;;;;5075882;28;20036;-83
2021/10/31 11:05:51;;;;;;;2.28;1.02;;;15.90;99.90;;;;;;5055924;28;20058;-83
2021/10/31 11:08:21;;;;;;;2.17;1.20;;;16.10;99.90;;;;;;5072693;28;20036;-84
2021/10/31 11:10:51;;;;;;;2.67;0.93;;;16.20;99.90;;;;;;5064685;28;20492;-83
2021/10/31 11:13:17;;;;;;;2.45;0.90;;;16.20;99.90;;;;;;5072515;28;20032;-83
2021/10/31 11:15:43;;;;;;;2.63;1.10;;;16.30;99.90;;;;;;5072436;28;20021;-84
2021/10/31 11:18:10;;;;;;;2.33;0.80;;;16.40;99.90;;;;;;5076011;28;20109;-84
2021/10/31 11:20:39;;;;;;;2.30;0.75;;;16.50;99.90;;;;;;5062875;28;20484;-84
2021/10/31 11:23:07;;;;;;;1.60;0.70;;;17.20;99.90;;;;;;5063208;28;20031;-84
2021/10/31 11:25:39;;;;;;;1.80;0.70;;;16.70;99.90;;;;;;5061066;28;20053;-83
2021/10/31 11:28:08;;;;;;;2.17;0.90;;;16.80;99.90;;;;;;5060920;28;20026;-83
2021/10/31 11:30:35;;;;;;;2.13;0.85;;;16.90;99.90;;;;;;5066247;28;20021;-84
2021/10/31 11:33:03;;;;;;;1.38;0.60;;;16.80;99.90;;;;;;5087686;28;20095;-85
2021/10/31 11:35:29;;;;;;;1.88;0.73;;;16.90;99.90;;;;;;5064208;28;20096;-84
2021/10/31 11:38:00;;;;;;;1.10;0.60;;;17.00;99.90;;;;;;5080541;28;20074;-83
2021/10/31 11:40:42;;;;;;;0.80;0.50;;;17.40;99.90;;;;;;5072857;28;20036;-85
2021/10/31 11:43:15;;;;;;;2.10;0.73;;;17.20;99.90;;;;;;5070541;28;20306;-85
2021/10/31 11:45:44;;;;;;;2.10;0.60;;;17.30;99.90;;;;;;5058626;28;20099;-85
2021/10/31 11:48:14;;;;;;;1.80;0.80;;;17.30;99.90;;;;;;5060047;28;20064;-85
2021/10/31 11:50:43;;;;;;;1.48;0.77;;;17.40;99.90;;;;;;5050818;28;20025;-85
2021/10/31 11:53:16;;;;;;;1.55;0.50;;;17.50;99.90;;;;;;5057455;23;20021;-83
2021/10/31 11:55:50;;;;;;;2.03;0.73;;;17.60;99.90;;;;;;5049579;28;20047;-83
2021/10/31 11:58:28;;;;;;;1.05;0.40;;;17.90;99.90;;;;;;5048307;28;20025;-86
2021/10/31 12:00:56;;;;;;;1.95;0.50;;;17.80;99.90;;;;;;5037639;28;20109;-85
2021/10/31 12:03:46;;;;;;;1.27;0.40;;;18.20;99.90;;;;;;5052045;28;20020;-84
2021/10/31 12:06:14;;;;;;;0.95;0.50;;;17.90;99.90;;;;;;5069088;28;20760;-85
2021/10/31 12:08:53;;;;;;;0.95;0.40;;;17.90;99.90;;;;;;5069797;28;20020;-86
2021/10/31 12:11:29;;;;;;;1.27;0.60;;;17.90;99.90;;;;;;5045124;28;20379;-85
2021/10/31 12:14:07;;;;;;;2.10;0.57;;;17.90;99.90;;;;;;5047806;28;20021;-86
2021/10/31 12:17:09;;;;;;;1.23;0.52;;;17.90;99.90;;;;;;5061507;28;20033;-84
2021/10/31 12:19:40;;;;;;;2.90;1.03;;;18.00;99.90;;;;;;4994797;28;20037;-83
2021/10/31 12:22:20;;;;;;;1.23;0.47;;;18.00;99.90;;;;;;5040299;28;20568;-82
2021/10/31 12:24:57;;;;;;;1.45;0.50;;;18.10;99.90;;;;;;5039379;28;20033;-81
2021/10/31 12:27:25;;;;;;;1.20;0.50;;;18.10;99.90;;;;;;5058666;28;20032;-83
2021/10/31 12:30:20;;;;;;;0.75;0.40;;;18.20;99.90;;;;;;5070955;28;20097;-83
2021/10/31 12:32:46;;;;;;;1.33;0.40;;;18.30;99.90;;;;;;5064746;28;20013;-83
2021/10/31 12:35:31;;;;;;;1.40;0.47;;;18.40;99.90;;;;;;5070482;28;20029;-83
2021/10/31 12:38:15;;;;;;;2.92;1.20;;;18.40;99.90;;;;;;5069381;28;20569;-83
2021/10/31 12:40:42;;;;;;;3.65;0.50;;;18.50;99.90;;;;;;5069667;28;20027;-83
2021/10/31 12:43:08;;;;;;;0.77;0.38;;;18.50;99.90;;;;;;5066565;28;20497;-84
2021/10/31 12:45:37;;;;;;;2.33;0.43;;;18.50;99.90;;;;;;5050100;28;20059;-84
2021/10/31 12:48:11;;;;;;;1.60;0.55;;;18.60;99.90;;;;;;5050603;28;20497;-84
2021/10/31 12:50:37;;;;;;;1.92;0.50;;;18.70;99.90;;;;;;5069216;28;20103;-83
2021/10/31 12:53:09;;;;;;;2.05;0.60;;;18.70;99.90;;;;;;5053286;28;20099;-85
2021/10/31 12:55:37;;;;;;;1.05;0.50;;;18.70;99.90;;;;;;5065725;28;20036;-84
2021/10/31 12:58:06;;;;;;;1.13;0.40;;;18.70;99.90;;;;;;5055519;28;20385;-85
2021/10/31 13:00:36;;;;;;;1.52;0.40;;;18.90;99.90;;;;;;5053838;28;20020;-84